This is the latest recevied weather packets stored in our database for station/object KC4JIR. If no packets are shown the sender has not sent any weather packets the latest 10 day(s).
| Time | Temp. | Humidity | Pressure | Rain* | Wind** | Luminosity | Snow |
|---|---|---|---|---|---|---|---|
| 1777929197 | 27.22° C | 33% | 1012.7 hPa | 0 mm | - | 295 W/m² | - |
| 1777928895 | 27.22° C | 34% | 1012.4 hPa | 0 mm | - | 472 W/m² | - |
| 1777928592 | 27.22° C | 33% | 1012.6 hPa | 0 mm | - | 371 W/m² | - |
| 1777928289 | 27.22° C | 32% | 1012.5 hPa | 0 mm | - | 547 W/m² | - |
| 1777927987 | 27.78° C | 34% | 1012.5 hPa | 0 mm | - | 490 W/m² | - |
| 1777927685 | 28.33° C | 29% | 1012.6 hPa | 0 mm | - | 417 W/m² | - |
| 1777927383 | 27.78° C | 34% | 1012.7 hPa | 0 mm | - | 554 W/m² | - |
| 1777927082 | 27.78° C | 37% | 1012.6 hPa | 0 mm | - | 540 W/m² | - |
| 1777926779 | 27.78° C | 33% | 1012.4 hPa | 0 mm | - | 487 W/m² | - |
| 1777926479 | 27.78° C | 34% | 1012.8 hPa | 0 mm | - | 571 W/m² | - |
| 1777926176 | 27.22° C | 33% | 1013 hPa | 0 mm | - | 582 W/m² | - |
| 1777925873 | 26.67° C | 34% | 1013.1 hPa | 0 mm | - | 594 W/m² | - |
| 1777925570 | 27.22° C | 31% | 1012.9 hPa | 0 mm | - | 548 W/m² | - |
| 1777925268 | 26.67° C | 31% | 1013.1 hPa | 0 mm | - | 559 W/m² | - |
| 1777924964 | 27.78° C | 30% | 1013.1 hPa | 0 mm | - | 581 W/m² | - |
| 1777924661 | 26.67° C | 33% | 1013.2 hPa | 0 mm | - | 612 W/m² | - |
| 1777924356 | 27.22° C | 33% | 1013.4 hPa | 0 mm | - | 646 W/m² | - |
| 1777924054 | 26.11° C | 31% | 1013.2 hPa | 0 mm | - | 652 W/m² | - |
| 1777923750 | 26.11° C | 31% | 1013.4 hPa | 0 mm | - | 660 W/m² | - |
| 1777923446 | 27.22° C | 27% | 1013.6 hPa | 0 mm | - | 536 W/m² | - |
| 1777923144 | 26.11° C | 31% | 1013.7 hPa | 0 mm | - | 651 W/m² | - |
| 1777922842 | 26.67° C | 30% | 1013.7 hPa | 0 mm | - | 561 W/m² | - |
| 1777922540 | 27.22° C | 28% | 1013.6 hPa | 0 mm | - | 511 W/m² | - |
| 1777922238 | 26.11° C | 30% | 1013.8 hPa | 0 mm | - | 602 W/m² | - |
| 1777921935 | 26.67° C | 31% | 1013.9 hPa | 0 mm | - | 686 W/m² | - |
* Rain latest hour (hover to see other rain measurements)
** Current wind speed in m/s (hover to see current wind gust speed)